Flight Track Log - Related Links

Times and Time Zones

All times are in EDT time to prevent confusion due to time zone crossing. See the DAL2352 flight status page for this flight to view local times or setup timezone preferences in your user account.

Time Position Orientation Groundspeed Altitude Reporting Facility
EDT Latitude Longitude Course Direction KTS MPH feet Rate Location/Type
Sun 01:43:07 AM 33.9333 -118.4667 92° East 191 220 2,100  Level Southern California TRACON
Sun 01:43:59 AM 33.8919 -118.5103 221° Southwest 242 278 3,400 2,283 Climbing Los Angeles Center
Sun 01:45:00 AM 33.9324 -117.8736 91° East  Level Estimated
Sun 01:45:00 AM 33.8144 -118.5233 188° South 272 313 6,400  Level Los Angeles Center
Sun 01:46:00 AM 33.9286 -117.6955 91° East  Level Estimated
Sun 01:46:01 AM 33.7383 -118.5211 179° South 275 316 9,100  Level Los Angeles Center
Sun 01:47:00 AM 33.9244 -117.5174 92° East  Level Estimated
Sun 01:47:01 AM 33.6808 -118.4653 141° Southeast 308 354 10,800  Level Los Angeles Center
Sun 01:48:00 AM 33.9200 -117.3394 92° East  Level Estimated
Sun 01:48:02 AM 33.6492 -118.3586 110° East 350 403 11,800  Level Los Angeles Center
Sun 01:49:03 AM 33.6442 -118.2339 93° East 382 440 13,900 1,983 Climbing Los Angeles Center
Sun 01:50:03 AM 33.6442 -118.1033 90° East 393 452 15,800 1,884 Climbing Los Angeles Center
Sun 01:51:04 AM 33.6442 -117.9633 90° East 404 465 17,700 1,574 Climbing Los Angeles Center
Sun 01:52:05 AM 33.6442 -117.8253 90° East 420 483 19,000 1,488 Climbing Los Angeles Center
Sun 01:53:05 AM 33.6406 -117.6483 91° East 441 507 20,700 1,736 Climbing Los Angeles Center
Sun 01:54:06 AM 33.6375 -117.4986 91° East 449 517 22,500 1,525 Climbing Los Angeles Center
Sun 01:55:07 AM 33.6356 -117.3453 91° East 457 526 23,800 1,190 Climbing Los Angeles Center
Sun 01:56:07 AM 33.6331 -117.1911 91° East 463 533 24,900 992 Climbing Los Angeles Center
Sun 01:57:08 AM 33.6283 -117.0286 92° East 470 541 25,800 843 Climbing Los Angeles Center
Sun 01:58:08 AM 33.6242 -116.8692 92° East 485 558 26,600 694 Climbing Los Angeles Center
Sun 01:59:09 AM 33.6186 -116.6969 92° East 499 574 27,200 787 Climbing Los Angeles Center
Sun 02:00:10 AM 33.6136 -116.5247 92° East 509 586 28,200 893 Climbing Los Angeles Center
Sun 02:01:10 AM 33.6089 -116.3533 92° East 511 588 29,000 793 Climbing Los Angeles Center
Sun 02:02:11 AM 33.6031 -116.1789 92° East 518 596 29,800 787 Climbing Los Angeles Center
Sun 02:03:12 AM 33.5964 -116.0008 93° East 527 606 30,600 793 Climbing Los Angeles Center
Sun 02:04:12 AM 33.5922 -115.8250 92° East 527 606 31,400 793 Climbing Los Angeles Center
Sun 02:05:13 AM 33.5847 -115.6469 93° East 529 609 32,200 738 Climbing Los Angeles Center
Sun 02:06:14 AM 33.5783 -115.4686 92° East 531 611 32,900 397 Climbing Los Angeles Center
Sun 02:07:14 AM 33.5728 -115.2914 92° East 532 612 33,000 50 Climbing Los Angeles Center
Sun 02:08:15 AM 33.5647 -115.1136 93° East 533 613 33,000 -49 Level Los Angeles Center
Sun 02:09:16 AM 33.5586 -114.9361 92° East 533 613 32,900 -50 Descending Los Angeles Center
Sun 02:10:16 AM 33.5508 -114.7567 93° East 538 619 32,900 50 Level Los Angeles Center
Sun 02:11:17 AM 33.5411 -114.5792 94° East 536 617 33,000 49 Climbing Los Angeles Center
Sun 02:12:18 AM 33.5347 -114.4017 92° East 535 616 33,000  Level Los Angeles Center
Sun 02:12:59 AM 33.5311 -114.2781 92° East 535 616 33,000  Level Albuquerque Center
Sun 02:13:59 AM 33.5228 -114.1011 93° East 534 615 33,000  Level Albuquerque Center
Sun 02:14:59 AM 33.5139 -113.9250 93° East 534 615 33,000 397 Level Albuquerque Center
Sun 02:16:00 AM 33.5053 -113.7475 93° East 534 615 33,800 942 Climbing Albuquerque Center
Sun 02:17:00 AM 33.4956 -113.5747 94° East 526 605 34,900 545 Climbing Albuquerque Center
Sun 02:18:01 AM 33.4853 -113.4042 94° East 520 598 34,900 50 Level Albuquerque Center
Sun 02:19:01 AM 33.4758 -113.2319 94° East 519 597 35,000 50 Climbing Albuquerque Center
Sun 02:20:01 AM 33.4672 -113.0603 93° East 519 597 35,000  Level Albuquerque Center
Sun 02:21:02 AM 33.4578 -112.8839 94° East 520 598 35,000  Level Albuquerque Center
Sun 02:22:02 AM 33.4506 -112.7100 93° East 521 600 35,000  Level Albuquerque Center
Sun 02:23:03 AM 33.4481 -112.5436 91° East 517 595 35,000  Level Albuquerque Center
Sun 02:24:03 AM 33.4442 -112.3719 92° East 517 595 35,000  Level Albuquerque Center
Sun 02:25:03 AM 33.4392 -112.1989 92° East 519 597 35,000  Level Albuquerque Center
Sun 02:26:04 AM 33.4344 -111.9942 92° East 519 597 35,000  Level Albuquerque Center
Sun 02:27:04 AM 33.4317 -111.8236 91° East 519 597 35,000  Level Albuquerque Center
Sun 02:28:05 AM 33.4292 -111.6519 91° East 519 597 35,000  Level Albuquerque Center
Sun 02:29:05 AM 33.4258 -111.4803 91° East 520 598 35,000  Level Albuquerque Center
Sun 02:30:06 AM 33.4233 -111.3086 91° East 520 598 35,000  Level Albuquerque Center
Sun 02:31:06 AM 33.4197 -111.1367 91° East 520 598 35,000  Level Albuquerque Center
Sun 02:32:06 AM 33.4164 -110.9644 91° East 520 598 35,000  Level Albuquerque Center
Sun 02:33:07 AM 33.4142 -110.7892 91° East 522 601 35,000  Level Albuquerque Center
Sun 02:34:07 AM 33.4092 -110.6150 92° East 525 604 35,000  Level Albuquerque Center
Sun 02:35:08 AM 33.4044 -110.4397 92° East 525 604 35,000  Level Albuquerque Center
Sun 02:36:08 AM 33.4003 -110.2667 92° East 525 604 35,000  Level Albuquerque Center
Sun 02:37:08 AM 33.3947 -110.0919 92° East 525 604 35,000  Level Albuquerque Center
Sun 02:38:09 AM 33.3897 -109.9175 92° East 525 604 35,000  Level Albuquerque Center
Sun 02:39:09 AM 33.3844 -109.7433 92° East 525 604 35,000  Level Albuquerque Center
Sun 02:40:10 AM 33.3789 -109.5692 92° East 525 604 35,000  Level Albuquerque Center
Sun 02:41:10 AM 33.3739 -109.3942 92° East 525 604 35,000  Level Albuquerque Center
Sun 02:42:10 AM 33.3669 -109.2186 93° East 525 604 35,000  Level Albuquerque Center
Sun 02:43:11 AM 33.3611 -109.0422 92° East 526 605 35,000  Level Albuquerque Center
Sun 02:44:11 AM 33.3561 -108.8642 92° East 527 606 35,000  Level Albuquerque Center
Sun 02:45:11 AM 33.3519 -108.6867 92° East 529 609 35,000  Level Albuquerque Center
Sun 02:46:12 AM 33.3469 -108.5108 92° East 529 609 35,000  Level Albuquerque Center
Sun 02:47:12 AM 33.3428 -108.3353 92° East 528 608 35,000  Level Albuquerque Center
Sun 02:48:12 AM 33.3375 -108.1614 92° East 527 606 35,000  Level Albuquerque Center
Sun 02:49:13 AM 33.3314 -107.9869 92° East 526 605 35,000  Level Albuquerque Center
Sun 02:50:13 AM 33.3261 -107.8125 92° East 526 605 35,000  Level Albuquerque Center
Sun 02:51:14 AM 33.3208 -107.6447 92° East 526 605 35,000 -50 Level Albuquerque Center
Sun 02:52:14 AM 33.3144 -107.4703 92° East 526 605 34,900  Descending Albuquerque Center
Sun 02:53:14 AM 33.3078 -107.2953 93° East 525 604 35,000  Climbing Albuquerque Center
Sun 02:54:15 AM 33.3022 -107.1219 92° East 524 603 34,900  Descending Albuquerque Center
Sun 02:55:15 AM 33.2950 -106.9503 93° East 519 597 35,000 50 Climbing Albuquerque Center
Sun 02:56:15 AM 33.2889 -106.7767 92° East 519 597 35,000  Level Albuquerque Center
Sun 02:57:16 AM 33.2808 -106.5972 93° East 528 608 35,000 -50 Level Albuquerque Center
Sun 02:58:16 AM 33.2733 -106.4211 93° East 531 611 34,900  Descending Albuquerque Center
Sun 02:59:16 AM 33.2653 -106.2428 93° East 532 612 35,000 50 Climbing Albuquerque Center
Sun 03:00:17 AM 33.2550 -106.0264 93° East 539 620 35,000  Level Albuquerque Center
Sun 03:01:17 AM 33.2481 -105.8467 93° East 540 621 35,000 -50 Level Albuquerque Center
Sun 03:02:18 AM 33.2397 -105.6669 93° East 540 621 34,900  Descending Albuquerque Center
Sun 03:03:18 AM 33.2311 -105.4789 93° East 548 631 35,000 100 Climbing Albuquerque Center
Sun 03:04:18 AM 33.2239 -105.2983 93° East 547 629 35,100  Climbing Albuquerque Center
Sun 03:05:19 AM 33.2178 -105.1222 92° East 538 619 35,000 -99 Descending Albuquerque Center
Sun 03:06:19 AM 33.2092 -104.9450 93° East 537 618 34,900  Descending Albuquerque Center
Sun 03:07:20 AM 33.2011 -104.7694 93° East 536 617 35,000 50 Climbing Albuquerque Center
Sun 03:08:20 AM 33.1925 -104.5931 93° East 536 617 35,000  Level Albuquerque Center
Sun 03:09:20 AM 33.1850 -104.4017 93° East 542 624 35,000  Level Albuquerque Center
Sun 03:10:21 AM 33.1767 -104.2225 93° East 542 624 35,000  Level Albuquerque Center
Sun 03:11:21 AM 33.1683 -104.0414 93° East 548 631 35,000  Level Albuquerque Center
Sun 03:12:22 AM 33.1583 -103.8611 94° East 548 631 35,000  Level Albuquerque Center
Sun 03:13:22 AM 33.1497 -103.6769 93° East 548 631 35,000  Level Albuquerque Center
Sun 03:14:22 AM 33.1406 -103.5275 94° East 548 631 35,000  Level Albuquerque Center
Sun 03:15:23 AM 33.1297 -103.3472 94° East 548 631 35,000  Level Albuquerque Center
Sun 03:16:53 AM 33.1114 -103.0564 94° East 551 634 35,000  Level Fort Worth Center
Sun 03:17:53 AM 33.1006 -102.8719 94° East 552 635 35,000  Level Fort Worth Center
Sun 03:18:53 AM 33.0897 -102.6847 94° East 558 642 35,000  Level Fort Worth Center
Sun 03:19:53 AM 33.0778 -102.4969 94° East 566 651 35,000  Level Fort Worth Center
Sun 03:20:53 AM 33.0650 -102.3089 95° East 566 651 35,000  Level Fort Worth Center
Sun 03:21:54 AM 33.0531 -102.1214 94° East 565 650 35,000  Level Fort Worth Center
Sun 03:22:54 AM 33.0397 -101.9342 95° East 565 650 35,000  Level Fort Worth Center
Sun 03:23:54 AM 33.0267 -101.7494 95° East 562 647 35,000  Level Fort Worth Center
Sun 03:24:54 AM 33.0136 -101.5650 95° East 561 646 35,000  Level Fort Worth Center
Sun 03:25:54 AM 32.9994 -101.3811 95° East 558 642 35,000  Level Fort Worth Center
Sun 03:26:54 AM 32.9861 -101.1900 95° East 557 641 35,000  Level Fort Worth Center
Sun 03:27:54 AM 32.9703 -101.0061 96° East 558 642 35,000  Level Fort Worth Center
Sun 03:28:55 AM 32.9575 -100.8228 95° East 557 641 35,000  Level Fort Worth Center
Sun 03:29:55 AM 32.9425 -100.6408 96° East 554 638 35,000  Level Fort Worth Center
Sun 03:30:55 AM 32.9286 -100.4569 95° East 556 640 35,000  Level Fort Worth Center
Sun 03:31:55 AM 32.9167 -100.3092 95° East 558 642 35,000  Level Fort Worth Center
Sun 03:32:55 AM 32.9017 -100.1222 95° East 560 644 35,000  Level Fort Worth Center
Sun 03:33:55 AM 32.8861 -99.9322 96° East 565 650 35,000  Level Fort Worth Center
Sun 03:34:55 AM 32.8692 -99.7400 96° East 565 650 35,000  Level Fort Worth Center
Sun 03:35:56 AM 32.8511 -99.5492 96° East 572 658 35,000  Level Fort Worth Center
Sun 03:36:56 AM 32.8347 -99.3625 96° East 564 649 35,000  Level Fort Worth Center
Sun 03:37:56 AM 32.8167 -99.1772 97° East 560 644 35,000  Level Fort Worth Center
Sun 03:38:56 AM 32.8000 -98.9911 96° East 565 650 35,000  Level Fort Worth Center
Sun 03:39:56 AM 32.7833 -98.8019 96° East 573 659 35,000  Level Fort Worth Center
Sun 03:40:56 AM 32.7639 -98.6183 97° East 564 649 35,000 -50 Level Fort Worth Center
Sun 03:41:56 AM 32.7439 -98.4114 96° East 568 654 34,900  Descending Fort Worth Center
Sun 03:42:56 AM 32.7264 -98.2244 96° East 575 662 35,000 50 Climbing Fort Worth Center
Sun 03:43:57 AM 32.7069 -98.0367 97° East 577 664 35,000  Level Fort Worth Center
Sun 03:44:57 AM 32.6886 -97.8497 97° East 577 664 35,000  Level Fort Worth Center
Sun 03:45:57 AM 32.6731 -97.6997 97° East 575 662 35,000  Level Fort Worth Center
Sun 03:46:57 AM 32.6492 -97.4761 97° East 576 663 35,000 -50 Level Fort Worth Center
Sun 03:47:57 AM 32.6303 -97.2908 97° East 573 659 34,900  Descending Fort Worth Center
Sun 03:48:57 AM 32.6097 -97.1083 98° East 567 652 35,000 50 Climbing Fort Worth Center
Sun 03:49:57 AM 32.5897 -96.9231 97° East 572 658 35,000 -50 Level Fort Worth Center
Sun 03:50:57 AM 32.5703 -96.7383 97° East 572 658 34,900 -50 Descending Fort Worth Center
Sun 03:51:58 AM 32.5494 -96.5539 98° East 571 657 34,900 50 Level Fort Worth Center
Sun 03:52:58 AM 32.5292 -96.3692 97° East 571 657 35,000 50 Climbing Fort Worth Center
Sun 03:53:58 AM 32.5075 -96.1842 98° East 570 656 35,000  Level Fort Worth Center
Sun 03:54:58 AM 32.4856 -95.9953 98° East 570 656 35,000 -50 Level Fort Worth Center
Sun 03:55:58 AM 32.4642 -95.8158 98° East 567 652 34,900 -50 Descending Fort Worth Center
Sun 03:56:58 AM 32.4431 -95.6317 98° East 567 652 34,900 50 Level Fort Worth Center
Sun 03:57:58 AM 32.4192 -95.4472 99° East 567 652 35,000 50 Climbing Fort Worth Center
Sun 03:58:59 AM 32.3975 -95.2639 98° East 567 652 35,000 -50 Level Fort Worth Center
Sun 03:59:59 AM 32.3744 -95.0794 98° East 567 652 34,900 250 Descending Fort Worth Center
Sun 04:00:59 AM 32.3492 -94.8794 98° East 567 652 35,500 650 Climbing Fort Worth Center
Sun 04:01:59 AM 32.3261 -94.6956 98° East 567 652 36,200 650 Climbing Fort Worth Center
Sun 04:02:59 AM 32.3022 -94.5122 99° East 567 652 36,800 400 Climbing Fort Worth Center
Sun 04:03:59 AM 32.2992 -94.3244 91° East 577 664 37,000 99 Climbing Fort Worth Center
Sun 04:05:00 AM 32.2997 -94.1375 90° East 577 664 37,000  Level Fort Worth Center
Sun 04:06:00 AM 32.2975 -93.9500 91° East 577 664 37,000  Level Fort Worth Center
Sun 04:07:00 AM 32.2994 -93.7614 89° East 577 664 37,000  Level Fort Worth Center
Sun 04:08:00 AM 32.2989 -93.5736 90° East 578 665 37,000  Level Fort Worth Center
Sun 04:09:00 AM 32.2981 -93.3869 90° East 575 662 37,000  Level Fort Worth Center
Sun 04:10:00 AM 32.2922 -93.2014 92° East 575 662 37,000  Level Fort Worth Center
Sun 04:11:00 AM 32.2800 -93.0314 95° East 575 662 37,000  Level Fort Worth Center
Sun 04:12:01 AM 32.2628 -92.8303 96° East 573 659 37,000  Level Fort Worth Center
Sun 04:13:01 AM 32.2528 -92.6569 94° East 573 659 37,000  Level Fort Worth Center
Sun 04:14:01 AM 32.2375 -92.4725 96° East 567 652 37,000  Level Fort Worth Center
Sun 04:15:01 AM 32.2192 -92.2864 97° East 568 654 37,000  Level Fort Worth Center
Sun 04:16:16 AM 32.1731 -92.0306 102° East 570 656 37,000  Level Houston Center
Sun 04:17:17 AM 32.1397 -91.8464 102° East 570 656 37,000  Level Houston Center
Sun 04:18:17 AM 32.1072 -91.6614 102° East 572 658 37,000  Level Houston Center
Sun 04:19:17 AM 32.0728 -91.4778 102° East 573 659 37,000  Level Houston Center
Sun 04:20:17 AM 32.0397 -91.2947 102° East 573 659 37,000  Level Houston Center
Sun 04:21:17 AM 32.0056 -91.1111 102° East 573 659 37,000  Level Houston Center
Sun 04:22:17 AM 31.9717 -90.9283 102° East 573 659 37,000 -50 Level Houston Center
Sun 04:23:18 AM 31.9425 -90.7692 102° East 573 659 36,900 -50 Descending Houston Center
Sun 04:24:18 AM 31.9078 -90.5864 103° East 573 659 36,900 50 Level Houston Center
Sun 04:25:18 AM 31.8672 -90.4058 105° East 573 659 37,000  Climbing Houston Center
Sun 04:26:18 AM 31.8167 -90.2314 109° East 568 654 36,900 -50 Descending Houston Center
Sun 04:27:18 AM 31.7664 -90.0553 109° East 568 654 36,900  Level Houston Center
Sun 04:28:19 AM 31.7167 -89.8803 108° East 567 652 36,900 50 Level Houston Center
Sun 04:29:19 AM 31.6653 -89.7053 109° East 567 652 37,000 50 Climbing Houston Center
Sun 04:30:19 AM 31.6128 -89.5228 109° East 567 652 37,000  Level Houston Center
Sun 04:31:19 AM 31.5628 -89.3492 109° East 565 650 37,000  Level Houston Center
Sun 04:32:19 AM 31.5119 -89.1767 109° East 564 649 37,000  Level Houston Center
Sun 04:33:19 AM 31.4603 -89.0022 109° East 564 649 37,000  Level Houston Center
Sun 04:34:20 AM 31.4086 -88.8278 109° East 566 651 37,000  Level Houston Center
Sun 04:35:20 AM 31.3572 -88.6542 109° East 565 650 37,000  Level Houston Center
Sun 04:36:20 AM 31.3042 -88.4803 110° East 564 649 37,000  Level Houston Center
Sun 04:37:20 AM 31.2519 -88.3056 109° East 563 648 37,000  Level Houston Center
Sun 04:38:20 AM 31.2008 -88.1392 110° East 562 647 37,000  Level Houston Center
Sun 04:39:21 AM 31.1489 -87.9675 109° East 563 648 37,000 -50 Level Houston Center
Sun 04:40:21 AM 31.0964 -87.7972 110° East 562 647 36,900  Descending Houston Center
Sun 04:41:21 AM 31.0389 -87.6125 110° East 560 644 37,000 50 Climbing Houston Center
Sun 04:42:21 AM 30.9739 -87.4503 115° Southeast 553 636 37,000  Level Houston Center
Sun 04:43:02 AM 30.9233 -87.3531 121° Southeast 550 633 37,000  Level Jacksonville Center
Sun 04:44:02 AM 30.8408 -87.2014 122° Southeast 550 633 37,000  Level Jacksonville Center
Sun 04:45:02 AM 30.7622 -87.0528 122° Southeast 545 627 37,000 -50 Level Jacksonville Center
Sun 04:46:02 AM 30.6736 -86.8897 122° Southeast 545 627 36,900  Descending Jacksonville Center
Sun 04:47:02 AM 30.5925 -86.7414 122° Southeast 545 627 37,000  Climbing Jacksonville Center
Sun 04:48:02 AM 30.5114 -86.5936 122° Southeast 545 627 36,900 -50 Descending Jacksonville Center
Sun 04:49:02 AM 30.4319 -86.4461 122° Southeast 540 621 36,900 50 Level Jacksonville Center
Sun 04:50:02 AM 30.3506 -86.2986 123° Southeast 540 621 37,000 50 Climbing Jacksonville Center
Sun 04:51:02 AM 30.2689 -86.1489 122° Southeast 540 621 37,000  Level Jacksonville Center
Sun 04:52:02 AM 30.1847 -86.0044 124° Southeast 540 621 37,000  Level Jacksonville Center
Sun 04:53:02 AM 30.1025 -85.8578 123° Southeast 540 621 37,000  Level Jacksonville Center
Sun 04:54:02 AM 30.0364 -85.7406 123° Southeast 540 621 37,000  Level Jacksonville Center
Sun 04:55:02 AM 29.9317 -85.5625 124° Southeast 547 629 37,000  Level Jacksonville Center
Sun 04:56:02 AM 29.8614 -85.4289 121° Southeast 555 639 37,000 -50 Level Jacksonville Center
Sun 04:57:02 AM 29.7806 -85.2856 123° Southeast 555 639 36,900 -50 Descending Jacksonville Center
Sun 04:58:02 AM 29.6978 -85.1400 123° Southeast 550 633 36,900 -300 Level Jacksonville Center
Sun 04:59:02 AM 29.6144 -84.9947 123° Southeast 550 633 36,300 -1,050 Descending Jacksonville Center
Sun 05:00:02 AM 29.5314 -84.8497 123° Southeast 545 627 34,800 -1,450 Descending Jacksonville Center
Sun 05:01:02 AM 29.4500 -84.7075 123° Southeast 545 627 33,400 -950 Descending Jacksonville Center
Sun 05:02:02 AM 29.3664 -84.5606 123° Southeast 545 627 32,900 -250 Descending Jacksonville Center
Sun 05:03:02 AM 29.2783 -84.4186 125° Southeast 539 620 32,900 -800 Level Jacksonville Center
Sun 05:04:02 AM 29.1839 -84.2817 128° Southeast 544 626 31,300 -1,950 Descending Jacksonville Center
Sun 05:05:02 AM 29.0892 -84.1425 128° Southeast 544 626 29,000 -2,300 Descending Jacksonville Center
Sun 05:06:02 AM 28.9967 -84.0036 127° Southeast 549 632 26,700 -2,150 Descending Jacksonville Center
Sun 05:07:02 AM 28.9039 -83.8697 128° Southeast 544 626 24,700 -1,950 Descending Jacksonville Center
Sun 05:08:02 AM 28.8106 -83.7528 132° Southeast 525 604 22,800 -2,023 Descending Jacksonville Center
Sun 05:09:57 AM 28.6333 -83.5333 133° Southeast 486 559 18,800 -2,057 Descending Tampa TRACON
Sun 05:10:57 AM 28.5500 -83.4000 125° Southeast 460 529 16,800 -2,400 Descending Tampa TRACON
Sun 05:11:57 AM 28.5000 -83.2833 116° Southeast 429 494 14,000 -2,800 Descending Tampa TRACON
Sun 05:12:57 AM 28.4500 -83.1667 116° Southeast 408 470 11,200 -1,800 Descending Tampa TRACON
Sun 05:13:57 AM 28.4000 -83.0667 120° Southeast 364 419 10,400 -1,000 Descending Tampa TRACON
Sun 05:14:57 AM 28.3333 -82.9833 132° Southeast 309 356 9,200 -1,200 Descending Tampa TRACON
Sun 05:15:57 AM 28.2667 -82.9333 147° Southeast 304 350 8,000 -1,100 Descending Tampa TRACON
Sun 05:16:57 AM 28.2000 -82.8667 139° Southeast 307 353 7,000 -950 Descending Tampa TRACON
Sun 05:17:57 AM 28.1500 -82.8167 139° Southeast 294 338 6,100 -700 Descending Tampa TRACON
Sun 05:18:57 AM 28.0833 -82.7500 139° Southeast 282 325 5,600 -1,000 Descending Tampa TRACON
Sun 05:19:57 AM 28.0167 -82.7000 146° Southeast 281 323 4,100 -800 Descending Tampa TRACON
Sun 05:20:57 AM 27.9667 -82.6500 139° Southeast 251 289 4,000 -500 Descending Tampa TRACON
Sun 05:21:57 AM 27.9167 -82.6000 139° Southeast 237 273 3,100 -950 Descending Tampa TRACON
Sun 05:22:57 AM 27.8667 -82.5667 149° Southeast 181 208 2,100 -1,000 Descending Tampa TRACON
Sun 05:23:57 AM 27.9167 -82.5500 16° North 152 175 1,100 -900 Descending Tampa TRACON
Sun 05:24:57 AM 27.9500 -82.5500 360° North 141 162 300 -800 Descending Tampa TRACON

Login

Don't have an account? Register now (free) for customized features, flight alerts, and more!